createdAt,value
2023-05-06T00:02:08.246Z,96579.38
2023-05-06T00:04:36.119Z,96575.38
2023-05-06T00:07:05.779Z,96575.13
2023-05-06T00:09:33.524Z,96545.41
2023-05-06T00:12:01.281Z,96562.41
2023-05-06T00:14:29.093Z,96561.09
2023-05-06T00:16:56.855Z,96551.28
2023-05-06T00:19:24.567Z,96535.53
2023-05-06T00:21:52.300Z,96543.22
2023-05-06T00:24:21.382Z,96539.25
2023-05-06T00:26:49.161Z,96531.16
2023-05-06T00:29:16.879Z,96526.28
2023-05-06T00:31:45.263Z,96533.72
2023-05-06T00:34:13.107Z,96542.75
2023-05-06T00:36:42.835Z,96539.28
2023-05-06T00:39:11.174Z,96540.53
2023-05-06T00:41:40.306Z,96542.00
2023-05-06T00:44:08.121Z,96545.22
2023-05-06T00:46:36.915Z,96549.47
2023-05-06T00:49:04.692Z,96552.09
2023-05-06T00:51:32.704Z,96554.81
2023-05-06T00:54:01.939Z,96547.00
2023-05-06T00:56:29.878Z,96551.75
2023-05-06T00:58:59.266Z,96548.09
2023-05-06T01:01:27.337Z,96547.28
2023-05-06T01:03:58.877Z,96541.78
2023-05-06T01:06:33.603Z,96537.47
2023-05-06T01:09:08.867Z,96549.03
2023-05-06T01:11:42.897Z,96545.72
2023-05-06T01:14:21.846Z,96554.66
2023-05-06T01:16:55.325Z,96529.16
2023-05-06T01:19:35.979Z,96541.94
2023-05-06T01:22:06.842Z,96519.53
2023-05-06T01:24:40.425Z,96543.22
2023-05-06T01:27:09.557Z,96536.41
2023-05-06T01:29:41.399Z,96547.81
2023-05-06T01:32:22.723Z,96537.50
2023-05-06T01:34:57.723Z,96533.59
2023-05-06T01:37:33.232Z,96535.97
2023-05-06T01:40:05.792Z,96539.63
2023-05-06T01:42:35.792Z,96526.31
2023-05-06T01:45:07.054Z,96536.53
2023-05-06T01:47:36.205Z,96536.63
2023-05-06T01:50:05.240Z,96542.84
2023-05-06T01:52:32.967Z,96534.44
2023-05-06T01:55:02.090Z,96538.00
2023-05-06T01:57:29.941Z,96546.31
2023-05-06T01:59:57.679Z,96548.22
2023-05-06T02:02:25.791Z,96535.22
2023-05-06T02:04:54.579Z,96539.47
2023-05-06T02:07:22.306Z,96538.28
2023-05-06T02:09:50.305Z,96540.69
2023-05-06T02:12:19.412Z,96532.59
2023-05-06T02:14:47.144Z,96537.09
2023-05-06T02:17:14.891Z,96540.16
2023-05-06T02:19:42.630Z,96534.81
2023-05-06T02:22:10.663Z,96532.16
2023-05-06T02:24:38.419Z,96532.50
2023-05-06T02:27:06.323Z,96536.94
2023-05-06T02:29:35.483Z,96530.97
2023-05-06T02:32:03.162Z,96545.50
2023-05-06T02:34:31.200Z,96537.38
2023-05-06T02:36:59.026Z,96542.44
2023-05-06T02:39:26.734Z,96545.38
2023-05-06T02:41:54.487Z,96540.00
2023-05-06T02:44:22.181Z,96515.84
2023-05-06T02:46:52.076Z,96516.66
2023-05-06T02:49:19.829Z,96518.06
2023-05-06T02:51:47.670Z,96527.41
2023-05-06T02:54:15.396Z,96516.94
2023-05-06T02:56:43.741Z,96516.84
2023-05-06T02:59:11.646Z,96516.34
2023-05-06T03:01:39.574Z,96517.09
2023-05-06T03:04:08.766Z,96520.69
2023-05-06T03:06:36.678Z,96515.72
2023-05-06T03:09:05.092Z,96518.22
2023-05-06T03:11:34.179Z,96512.25
2023-05-06T03:14:02.059Z,96506.81
2023-05-06T03:16:29.932Z,96512.69
2023-05-06T03:18:58.005Z,96507.31
2023-05-06T03:21:27.258Z,96508.94
2023-05-06T03:23:55.060Z,96514.81
2023-05-06T03:26:22.873Z,96512.97
2023-05-06T03:28:50.722Z,96514.63
2023-05-06T03:31:18.553Z,96512.53
2023-05-06T03:33:46.385Z,96511.72
2023-05-06T03:36:14.761Z,96513.19
2023-05-06T03:38:44.048Z,96512.06
2023-05-06T03:41:12.162Z,96521.19
2023-05-06T03:43:39.966Z,96500.06
2023-05-06T03:46:08.081Z,96501.38
2023-05-06T03:48:35.955Z,96500.25
2023-05-06T03:51:04.178Z,96509.03
2023-05-06T03:53:31.921Z,96513.50
2023-05-06T03:56:02.201Z,96513.56
2023-05-06T03:58:30.259Z,96507.19
2023-05-06T04:01:01.203Z,96509.75
2023-05-06T04:03:29.154Z,96501.81
2023-05-06T04:05:57.270Z,96515.28
2023-05-06T04:08:25.021Z,96519.97
2023-05-06T04:10:52.784Z,96523.91
2023-05-06T04:13:21.903Z,96524.50
2023-05-06T04:15:49.969Z,96513.09
2023-05-06T04:18:19.278Z,96526.47
2023-05-06T04:20:49.287Z,96527.47
2023-05-06T04:23:17.312Z,96526.59
2023-05-06T04:25:49.284Z,96529.50
2023-05-06T04:28:18.935Z,96522.84
2023-05-06T04:30:48.080Z,96526.59
2023-05-06T04:33:15.884Z,96524.03
2023-05-06T04:35:53.168Z,96520.22
2023-05-06T04:38:21.642Z,96529.41
2023-05-06T04:40:50.229Z,96519.09
2023-05-06T04:43:18.240Z,96535.31
2023-05-06T04:45:49.320Z,96534.78
2023-05-06T04:48:22.102Z,96536.03
2023-05-06T04:50:50.275Z,96530.75
2023-05-06T04:53:18.303Z,96520.59
2023-05-06T04:55:46.115Z,96496.34
2023-05-06T04:58:14.568Z,96520.94
2023-05-06T05:00:42.769Z,96522.13
2023-05-06T05:03:10.779Z,96532.78
2023-05-06T05:05:39.950Z,96536.22
2023-05-06T05:08:07.760Z,96524.88
2023-05-06T05:10:35.586Z,96533.19
2023-05-06T05:13:03.704Z,96543.44
2023-05-06T05:15:31.557Z,96536.56
2023-05-06T05:17:59.345Z,96536.31
2023-05-06T05:20:27.103Z,96533.19
2023-05-06T05:22:56.758Z,96537.34
2023-05-06T05:25:25.189Z,96532.00
2023-05-06T05:27:52.910Z,96539.72
2023-05-06T05:30:20.848Z,96539.94
2023-05-06T05:32:49.193Z,96526.03
2023-05-06T05:35:17.094Z,96530.41
2023-05-06T05:37:44.856Z,96535.25
2023-05-06T05:40:14.782Z,96539.09
2023-05-06T05:42:42.477Z,96541.22
2023-05-06T05:45:11.208Z,96534.22
2023-05-06T05:47:39.045Z,96534.16
2023-05-06T05:50:08.132Z,96536.41
2023-05-06T05:52:35.905Z,96532.09
2023-05-06T05:55:03.690Z,96529.53
2023-05-06T05:57:32.772Z,96529.06
2023-05-06T06:00:00.982Z,96539.81
2023-05-06T06:02:28.856Z,96524.47
2023-05-06T06:04:56.744Z,96520.41
2023-05-06T06:07:24.685Z,96447.44
2023-05-06T06:09:52.813Z,96511.72
2023-05-06T06:12:20.511Z,96524.09
2023-05-06T06:14:50.067Z,96523.16
2023-05-06T06:17:17.921Z,96524.75
2023-05-06T06:19:46.437Z,96517.72
2023-05-06T06:22:14.303Z,96523.38
2023-05-06T06:24:41.998Z,96513.91
2023-05-06T06:27:10.160Z,96520.44
2023-05-06T06:29:37.873Z,96523.38
2023-05-06T06:32:07.592Z,96522.31
2023-05-06T06:34:35.479Z,96525.84
2023-05-06T06:37:03.378Z,96530.50
2023-05-06T06:39:31.247Z,96532.03
2023-05-06T06:41:59.287Z,96535.16
2023-05-06T06:44:26.992Z,96522.78
2023-05-06T06:46:54.740Z,96522.31
2023-05-06T06:49:23.822Z,96533.69
2023-05-06T06:51:52.630Z,96518.59
2023-05-06T06:54:20.415Z,96529.09
2023-05-06T06:56:48.769Z,96520.31
2023-05-06T06:59:16.595Z,96527.66
2023-05-06T07:01:44.449Z,96522.66
2023-05-06T07:04:12.435Z,96534.41
2023-05-06T07:06:41.542Z,96531.81
2023-05-06T07:09:09.850Z,96527.31
2023-05-06T07:11:37.792Z,96531.16
2023-05-06T07:14:05.672Z,96532.81
2023-05-06T07:16:33.572Z,96528.31
2023-05-06T07:19:01.464Z,96525.78
2023-05-06T07:21:32.547Z,96528.56
2023-05-06T07:24:01.728Z,96507.88
2023-05-06T07:26:29.438Z,96529.28
2023-05-06T07:28:57.228Z,96529.69
2023-05-06T07:31:25.179Z,96522.94
2023-05-06T07:33:52.934Z,96524.47
2023-05-06T07:36:20.709Z,96522.22
2023-05-06T07:38:48.455Z,96528.47
2023-05-06T07:41:17.650Z,96522.31
2023-05-06T07:43:45.471Z,96508.88
2023-05-06T07:46:13.286Z,96526.78
2023-05-06T07:48:41.508Z,96527.16
2023-05-06T07:51:09.245Z,96518.50
2023-05-06T07:53:38.172Z,96522.44
2023-05-06T07:56:06.379Z,96528.78
2023-05-06T07:58:36.073Z,96530.66
2023-05-06T08:01:04.343Z,96530.59
2023-05-06T08:03:32.288Z,96530.97
2023-05-06T08:06:00.229Z,96541.91
2023-05-06T08:08:28.342Z,96527.88
2023-05-06T08:10:56.400Z,96527.13
2023-05-06T08:13:24.368Z,96525.22
2023-05-06T08:15:53.658Z,96527.38
2023-05-06T08:18:23.105Z,96529.31
2023-05-06T08:20:51.218Z,96531.59
2023-05-06T08:23:19.084Z,96533.53
2023-05-06T08:25:47.085Z,96514.81
2023-05-06T08:28:14.956Z,96531.13
2023-05-06T08:30:42.777Z,96541.66
2023-05-06T08:33:11.947Z,96530.31
2023-05-06T08:35:39.710Z,96527.13
2023-05-06T08:38:07.389Z,96532.69
2023-05-06T08:40:35.693Z,96528.66
2023-05-06T08:43:05.803Z,96534.69
2023-05-06T08:45:34.090Z,96527.09
2023-05-06T08:48:02.437Z,96518.66
2023-05-06T08:50:31.602Z,96525.00
2023-05-06T08:52:59.827Z,96520.03
2023-05-06T08:55:28.671Z,96513.75
2023-05-06T08:57:58.447Z,96518.22
2023-05-06T09:00:26.573Z,96524.59
2023-05-06T09:02:54.425Z,96511.47
2023-05-06T09:05:22.268Z,96520.44
2023-05-06T09:07:51.696Z,96518.53
2023-05-06T09:10:19.532Z,96520.91
2023-05-06T09:12:47.453Z,96525.19
2023-05-06T09:15:15.247Z,96524.97
2023-05-06T09:17:43.095Z,96513.88
2023-05-06T09:20:13.553Z,96518.69
2023-05-06T09:22:41.378Z,96516.31
2023-05-06T09:25:12.042Z,96503.53
2023-05-06T09:27:40.774Z,96503.84
2023-05-06T09:30:11.615Z,96510.72
2023-05-06T09:32:40.587Z,96508.53
2023-05-06T09:35:09.918Z,96506.00
2023-05-06T09:37:37.896Z,96500.16
2023-05-06T09:40:06.722Z,96489.97
2023-05-06T09:42:36.144Z,96489.28
2023-05-06T09:45:04.008Z,96490.53
2023-05-06T09:47:35.162Z,96494.41
2023-05-06T09:50:03.468Z,96493.72
2023-05-06T09:52:32.024Z,96487.06
2023-05-06T09:55:01.608Z,96482.69
2023-05-06T09:57:30.831Z,96490.66
2023-05-06T10:00:01.245Z,96479.09
2023-05-06T10:02:30.105Z,96429.22
2023-05-06T10:05:00.582Z,96469.47
2023-05-06T10:07:29.995Z,96447.63
2023-05-06T10:09:59.453Z,96463.19
2023-05-06T10:12:27.429Z,96448.44
2023-05-06T10:14:55.278Z,96462.31
2023-05-06T10:17:26.282Z,96452.78
2023-05-06T10:19:59.296Z,96448.41
2023-05-06T10:22:38.690Z,96440.94
2023-05-06T10:25:16.879Z,96446.47
2023-05-06T10:27:46.445Z,96441.63
2023-05-06T10:30:17.012Z,96435.25
2023-05-06T10:32:47.001Z,96438.84
2023-05-06T10:35:23.782Z,96438.72
2023-05-06T10:37:53.331Z,96432.78
2023-05-06T10:40:21.766Z,96423.97
2023-05-06T10:42:49.489Z,96435.28
2023-05-06T10:45:17.238Z,96428.50
2023-05-06T10:48:10.695Z,96424.25
2023-05-06T10:50:38.826Z,96412.34
2023-05-06T10:53:06.563Z,96428.47
2023-05-06T10:55:36.088Z,96428.78
2023-05-06T10:58:05.420Z,96418.03
2023-05-06T11:00:34.671Z,96413.16
2023-05-06T11:03:03.944Z,96419.38
2023-05-06T11:05:33.419Z,96421.00
2023-05-06T11:08:11.286Z,96423.66
2023-05-06T11:10:39.145Z,96416.50
2023-05-06T11:13:24.474Z,96406.53
2023-05-06T11:15:52.503Z,96412.84
2023-05-06T11:18:43.002Z,96407.06
2023-05-06T11:21:42.028Z,96403.09
2023-05-06T11:24:11.669Z,96405.66
2023-05-06T11:26:41.933Z,96401.16
2023-05-06T11:29:10.126Z,96401.06
2023-05-06T11:31:42.849Z,96391.03
2023-05-06T11:34:13.482Z,96392.06
2023-05-06T11:36:55.981Z,96388.16
2023-05-06T11:39:23.821Z,96401.09
2023-05-06T11:41:53.904Z,96385.69
2023-05-06T11:44:28.911Z,96388.41
2023-05-06T11:47:01.408Z,96392.47
2023-05-06T11:49:29.373Z,96390.34
2023-05-06T11:51:58.540Z,96375.00
2023-05-06T11:54:27.589Z,96384.41
2023-05-06T11:56:57.409Z,96374.72
2023-05-06T11:59:30.212Z,96366.66
2023-05-06T12:01:59.480Z,96362.47
2023-05-06T12:04:27.610Z,96361.69
2023-05-06T12:06:57.138Z,96376.59
2023-05-06T12:09:26.831Z,96373.72
2023-05-06T12:11:55.520Z,96355.28
2023-05-06T12:14:23.685Z,96363.63
2023-05-06T12:16:52.409Z,96347.53
2023-05-06T12:19:22.359Z,96352.69
2023-05-06T12:21:50.102Z,96339.78
2023-05-06T12:24:30.114Z,96368.84
2023-05-06T12:26:58.204Z,96358.75
2023-05-06T12:29:25.980Z,96353.50
2023-05-06T12:32:08.392Z,96353.44
2023-05-06T12:34:40.255Z,96346.84
2023-05-06T12:37:08.575Z,96352.72
2023-05-06T12:39:38.757Z,96357.88
2023-05-06T12:42:07.715Z,96339.69
2023-05-06T12:44:37.433Z,96344.00
2023-05-06T12:47:07.412Z,96345.84
2023-05-06T12:49:49.527Z,96355.94
2023-05-06T12:52:18.508Z,96344.53
2023-05-06T12:54:48.284Z,96347.28
2023-05-06T12:57:16.300Z,96350.66
2023-05-06T12:59:45.302Z,96354.59
2023-05-06T13:02:13.436Z,96348.38
2023-05-06T13:04:41.938Z,96341.09
2023-05-06T13:07:09.704Z,96341.75
2023-05-06T13:09:37.745Z,96344.97
2023-05-06T13:12:07.592Z,96337.59
2023-05-06T13:14:36.919Z,96340.06
2023-05-06T13:17:06.754Z,96339.78
2023-05-06T13:19:34.924Z,96324.38
2023-05-06T13:22:02.759Z,96324.91
2023-05-06T13:24:30.903Z,96320.06
2023-05-06T13:27:00.599Z,96325.38
2023-05-06T13:29:30.690Z,96319.72
2023-05-06T13:31:58.673Z,96321.69
2023-05-06T13:34:26.540Z,96319.56
2023-05-06T13:36:54.574Z,96313.38
2023-05-06T13:39:22.614Z,96307.06
2023-05-06T13:41:51.033Z,96302.09
2023-05-06T13:44:19.764Z,96297.44
2023-05-06T13:46:49.593Z,96291.88
2023-05-06T13:49:17.873Z,96290.72
2023-05-06T13:51:45.927Z,96294.03
2023-05-06T13:54:13.645Z,96295.84
2023-05-06T13:56:41.441Z,96292.81
2023-05-06T13:59:11.137Z,96274.16
2023-05-06T14:01:39.303Z,96290.56
2023-05-06T14:04:08.478Z,96289.94
2023-05-06T14:06:36.271Z,96287.09
2023-05-06T14:09:04.711Z,96282.09
2023-05-06T14:11:32.555Z,96285.44
2023-05-06T14:14:00.610Z,96277.34
2023-05-06T14:16:28.423Z,96227.25
2023-05-06T14:18:56.260Z,96276.41
2023-05-06T14:21:25.818Z,96281.28
2023-05-06T14:23:53.580Z,96271.59
2023-05-06T14:26:21.372Z,96272.84
2023-05-06T14:28:49.108Z,96274.97
2023-05-06T14:31:16.982Z,96270.94
2023-05-06T14:33:44.732Z,96268.22
2023-05-06T14:36:12.541Z,96265.75
2023-05-06T14:38:41.619Z,96263.25
2023-05-06T14:41:09.287Z,96259.72
2023-05-06T14:43:37.224Z,96247.97
2023-05-06T14:46:05.096Z,96243.16
2023-05-06T14:48:32.954Z,96255.19
2023-05-06T14:51:00.799Z,96244.44
2023-05-06T14:53:28.488Z,96243.69
2023-05-06T14:55:57.632Z,96248.56
2023-05-06T14:58:25.752Z,96248.38
2023-05-06T15:00:53.596Z,96245.16
2023-05-06T15:03:21.386Z,96240.72
2023-05-06T15:05:50.628Z,96239.09
2023-05-06T15:08:18.435Z,96240.88
2023-05-06T15:10:46.538Z,96246.97
2023-05-06T15:13:15.982Z,96248.34
2023-05-06T15:15:43.791Z,96252.09
2023-05-06T15:18:13.264Z,96250.56
2023-05-06T15:20:41.471Z,96258.78
2023-05-06T15:23:09.199Z,96259.94
2023-05-06T15:25:37.103Z,96254.53
2023-05-06T15:28:06.560Z,96248.09
2023-05-06T15:30:37.655Z,96250.66
2023-05-06T15:33:06.279Z,96254.13
2023-05-06T15:35:34.113Z,96250.00
2023-05-06T15:38:04.329Z,96247.44
2023-05-06T15:40:32.134Z,96247.44
2023-05-06T15:42:59.927Z,96244.81
2023-05-06T15:45:28.150Z,96246.63
2023-05-06T15:47:57.540Z,96250.66
2023-05-06T15:52:59.375Z,96241.41
2023-05-06T15:55:27.175Z,96244.81
2023-05-06T15:57:55.814Z,96245.81
2023-05-06T16:00:24.029Z,96243.56
2023-05-06T16:02:51.835Z,96244.53
2023-05-06T16:05:21.123Z,96234.06
2023-05-06T16:07:49.644Z,96238.75
2023-05-06T16:10:17.792Z,96242.47
2023-05-06T16:12:45.990Z,96241.41
2023-05-06T16:15:13.825Z,96228.78
2023-05-06T16:17:41.857Z,96236.31
2023-05-06T16:20:11.215Z,96233.72
2023-05-06T16:22:41.402Z,96238.53
2023-05-06T16:25:09.413Z,96233.59
2023-05-06T16:27:37.421Z,96240.44
2023-05-06T16:30:05.943Z,96231.22
2023-05-06T16:32:33.802Z,96233.47
2023-05-06T16:35:01.602Z,96232.75
2023-05-06T16:37:29.473Z,96241.84
2023-05-06T16:39:58.562Z,96232.53
2023-05-06T16:42:26.651Z,96226.13
2023-05-06T16:44:54.436Z,96230.41
2023-05-06T16:47:24.084Z,96223.84
2023-05-06T16:49:52.080Z,96223.97
2023-05-06T16:52:20.164Z,96230.94
2023-05-06T16:54:47.841Z,96231.00
2023-05-06T16:57:17.169Z,96227.44
2023-05-06T16:59:44.936Z,96222.28
2023-05-06T17:02:12.801Z,96218.34
2023-05-06T17:04:40.620Z,96212.91
2023-05-06T17:07:10.986Z,96221.69
2023-05-06T17:09:38.790Z,96213.75
2023-05-06T17:12:07.455Z,96215.34
2023-05-06T17:14:36.748Z,96209.09
2023-05-06T17:17:05.384Z,96208.00
2023-05-06T17:19:34.434Z,96202.34
2023-05-06T17:22:02.193Z,96211.19
2023-05-06T17:24:29.964Z,96223.19
2023-05-06T17:26:57.879Z,96223.09
2023-05-06T17:29:25.805Z,96227.75
2023-05-06T17:31:54.997Z,96224.91
2023-05-06T17:34:22.858Z,96226.31
2023-05-06T17:36:50.584Z,96228.41
2023-05-06T17:39:18.423Z,96226.44
2023-05-06T17:41:46.123Z,96229.66
2023-05-06T17:44:16.501Z,96232.97
2023-05-06T17:46:45.423Z,96242.69
2023-05-06T17:49:16.929Z,96235.84
2023-05-06T17:51:46.031Z,96236.94
2023-05-06T17:54:13.822Z,96193.50
2023-05-06T17:56:41.673Z,96239.81
2023-05-06T17:59:09.486Z,96248.97
2023-05-06T18:01:37.373Z,96250.53
2023-05-06T18:04:05.227Z,96247.94
2023-05-06T18:06:34.586Z,96242.44
2023-05-06T18:09:02.396Z,96239.31
2023-05-06T18:11:30.204Z,96239.88
2023-05-06T18:13:58.180Z,96248.56
2023-05-06T18:16:26.139Z,96261.91
2023-05-06T18:18:53.965Z,96262.06
2023-05-06T18:21:22.284Z,96264.97
2023-05-06T18:23:53.585Z,96265.66
2023-05-06T18:26:43.351Z,96270.56
2023-05-06T18:29:12.289Z,96265.59
2023-05-06T18:31:40.241Z,96276.44
2023-05-06T18:34:08.029Z,96277.34
2023-05-06T18:36:36.536Z,96258.03
2023-05-06T18:39:05.901Z,96285.19
2023-05-06T18:41:34.028Z,96279.91
2023-05-06T18:44:03.005Z,96275.06
2023-05-06T18:46:30.830Z,96239.66
2023-05-06T18:48:59.086Z,96286.56
2023-05-06T18:51:27.474Z,96291.03
2023-05-06T18:53:55.298Z,96286.13
2023-05-06T18:56:24.688Z,96296.34
2023-05-06T18:58:52.774Z,96292.69
2023-05-06T19:01:20.833Z,96296.03
2023-05-06T19:03:48.686Z,96293.97
2023-05-06T19:06:16.439Z,96303.81
2023-05-06T19:08:44.392Z,96287.56
2023-05-06T19:11:16.520Z,96304.75
2023-05-06T19:13:46.379Z,96289.00
2023-05-06T19:16:14.784Z,96301.69
2023-05-06T19:18:42.790Z,96296.84
2023-05-06T19:21:10.930Z,96312.06
2023-05-06T19:23:38.893Z,96311.44
2023-05-06T19:26:07.319Z,96300.69
2023-05-06T19:28:35.368Z,96310.88
2023-05-06T19:31:07.593Z,96309.97
2023-05-06T19:33:35.430Z,96313.81
2023-05-06T19:36:03.233Z,96318.41
2023-05-06T19:38:31.076Z,96320.16
2023-05-06T19:40:58.806Z,96318.81
2023-05-06T19:43:26.916Z,96335.03
2023-05-06T19:45:54.702Z,96326.19
2023-05-06T19:48:24.233Z,96320.28
2023-05-06T19:50:53.972Z,96326.84
2023-05-06T19:53:22.761Z,96320.41
2023-05-06T19:55:50.907Z,96327.25
2023-05-06T19:58:19.328Z,96316.72
2023-05-06T20:00:47.086Z,96317.88
2023-05-06T20:03:15.003Z,96313.88
2023-05-06T20:05:44.132Z,96310.41
2023-05-06T20:08:12.368Z,96306.59
2023-05-06T20:10:40.104Z,96314.13
2023-05-06T20:13:07.924Z,96313.06
2023-05-06T20:15:36.367Z,96314.47
2023-05-06T20:18:04.412Z,96315.81
2023-05-06T20:20:34.343Z,96313.69
2023-05-06T20:23:03.829Z,96312.63
2023-05-06T20:25:31.741Z,96320.94
2023-05-06T20:28:00.511Z,96308.56
2023-05-06T20:30:28.357Z,96309.63
2023-05-06T20:32:56.234Z,96317.66
2023-05-06T20:35:24.150Z,96310.59
2023-05-06T20:37:51.940Z,96314.44
2023-05-06T20:40:21.258Z,96286.66
2023-05-06T20:42:49.443Z,96316.22
2023-05-06T20:45:18.172Z,96314.31
2023-05-06T20:47:46.007Z,96309.19
2023-05-06T20:50:17.050Z,96315.56
2023-05-06T20:52:45.997Z,96320.41
2023-05-06T20:55:15.255Z,96327.47
2023-05-06T20:57:45.316Z,96328.03
2023-05-06T21:00:14.512Z,96315.09
2023-05-06T21:02:42.496Z,96328.03
2023-05-06T21:05:11.760Z,96320.78
2023-05-06T21:07:39.901Z,96316.22
2023-05-06T21:10:08.305Z,96319.66
2023-05-06T21:12:36.075Z,96319.94
2023-05-06T21:15:06.272Z,96321.50
2023-05-06T21:17:34.107Z,96317.72
2023-05-06T21:20:03.036Z,96311.22
2023-05-06T21:22:32.054Z,96313.84
2023-05-06T21:24:59.903Z,96305.72
2023-05-06T21:27:27.825Z,96312.72
2023-05-06T21:29:55.541Z,96310.00
2023-05-06T21:32:24.766Z,96318.72
2023-05-06T21:34:52.524Z,96307.25
2023-05-06T21:37:20.328Z,96312.69
2023-05-06T21:39:48.032Z,96311.34
2023-05-06T21:42:15.744Z,96307.88
2023-05-06T21:44:43.527Z,96306.03
2023-05-06T21:47:11.278Z,96303.03
2023-05-06T21:49:40.400Z,96300.72
2023-05-06T21:52:08.196Z,96304.97
2023-05-06T21:54:35.901Z,96309.34
2023-05-06T21:57:07.890Z,96305.84
2023-05-06T21:59:36.213Z,96312.25
2023-05-06T22:02:04.524Z,96305.16
2023-05-06T22:04:32.526Z,96303.78
2023-05-06T22:07:01.729Z,96309.84
2023-05-06T22:09:29.511Z,96296.41
2023-05-06T22:11:57.730Z,96303.34
2023-05-06T22:14:30.211Z,96290.06
2023-05-06T22:17:05.367Z,96305.13
2023-05-06T22:19:33.160Z,96302.56
2023-05-06T22:22:02.645Z,96306.44
2023-05-06T22:24:30.422Z,96311.53
2023-05-06T22:26:58.258Z,96302.81
2023-05-06T22:29:26.068Z,96292.47
2023-05-06T22:31:53.856Z,96313.28
2023-05-06T22:34:21.722Z,96313.66
2023-05-06T22:36:49.485Z,96307.59
2023-05-06T22:39:18.737Z,96307.69
2023-05-06T22:41:48.398Z,96306.63
2023-05-06T22:44:16.148Z,96312.50
2023-05-06T22:46:44.043Z,96314.66
2023-05-06T22:49:11.741Z,96319.97
2023-05-06T22:51:39.567Z,96307.84
2023-05-06T22:54:07.320Z,96308.63
2023-05-06T22:56:36.403Z,96307.50
2023-05-06T22:59:04.193Z,96302.75
2023-05-06T23:01:33.186Z,96308.66
2023-05-06T23:04:01.267Z,96302.78
2023-05-06T23:06:30.925Z,96309.03
2023-05-06T23:08:58.771Z,96307.66
2023-05-06T23:11:26.777Z,96308.03
2023-05-06T23:13:55.939Z,96306.81
2023-05-06T23:16:23.654Z,96308.41
2023-05-06T23:18:51.428Z,96307.63
2023-05-06T23:21:19.232Z,96293.91
2023-05-06T23:23:47.002Z,96309.63
2023-05-06T23:26:14.858Z,96304.16
2023-05-06T23:28:42.692Z,96306.94
2023-05-06T23:31:11.861Z,96293.91
2023-05-06T23:33:39.716Z,96298.44
2023-05-06T23:36:08.105Z,96292.34
2023-05-06T23:38:36.264Z,96297.47
2023-05-06T23:41:04.023Z,96300.69
2023-05-06T23:43:31.715Z,96308.03
2023-05-06T23:45:59.530Z,96303.38
2023-05-06T23:48:28.728Z,96291.84
2023-05-06T23:50:56.521Z,96304.25
2023-05-06T23:53:24.400Z,96294.28
2023-05-06T23:55:52.110Z,96301.59
2023-05-06T23:58:19.816Z,96298.97
